Time;durP1;ratioP1;P1;durP2;ratioP2;P2;SDS_P1;SDS_P2;PMS_P1;PMS_P2;Temp;Humidity;BMP_temperature;BMP_pressure;BME280_temperature;BME280_humidity;BME280_pressure;Samples;Min_cycle;Max_cycle;Signal;HPM_P1;HPM_P2
2023/12/15 00:01:41;;;;;;;20.90;13.80;;;7.60;99.90;;;;;;5078748;28;20025;-57
2023/12/15 00:04:07;;;;;;;22.52;15.27;;;7.60;99.90;;;;;;5078094;28;20385;-57
2023/12/15 00:06:33;;;;;;;22.23;15.45;;;7.50;99.90;;;;;;5077947;28;20031;-57
2023/12/15 00:08:59;;;;;;;25.88;17.48;;;7.50;99.90;;;;;;5077970;27;20075;-57
2023/12/15 00:11:25;;;;;;;24.55;16.08;;;7.50;99.90;;;;;;5078004;28;20031;-57
2023/12/15 00:13:50;;;;;;;24.88;16.88;;;7.60;99.90;;;;;;5077779;28;20024;-57
2023/12/15 00:16:16;;;;;;;29.88;17.20;;;7.50;99.90;;;;;;5078070;28;20017;-57
2023/12/15 00:18:42;;;;;;;37.30;21.17;;;7.50;99.90;;;;;;5077799;28;20028;-57
2023/12/15 00:21:08;;;;;;;30.88;18.77;;;7.50;99.90;;;;;;5077105;27;20055;-57
2023/12/15 00:23:34;;;;;;;46.38;24.30;;;7.50;99.90;;;;;;5077947;28;20060;-57
2023/12/15 00:26:00;;;;;;;75.00;38.03;;;7.50;99.90;;;;;;5077838;28;20025;-57
2023/12/15 00:28:26;;;;;;;65.43;33.70;;;7.40;99.90;;;;;;5077424;28;20035;-57
2023/12/15 00:30:52;;;;;;;28.80;18.52;;;7.40;99.90;;;;;;5077710;28;20029;-57
2023/12/15 00:33:18;;;;;;;39.53;21.80;;;7.40;99.90;;;;;;5077597;28;20186;-57
2023/12/15 00:35:46;;;;;;;47.60;25.52;;;7.50;99.90;;;;;;5077506;28;20048;-57
2023/12/15 00:38:12;;;;;;;42.83;24.40;;;7.50;99.90;;;;;;5077270;27;20043;-57
2023/12/15 00:40:38;;;;;;;36.90;21.10;;;7.40;99.90;;;;;;5077599;28;20017;-57
2023/12/15 00:43:04;;;;;;;29.30;18.30;;;7.40;99.90;;;;;;5077301;28;20477;-57
2023/12/15 00:45:29;;;;;;;39.30;23.13;;;7.50;99.90;;;;;;5077380;28;20030;-57
2023/12/15 00:47:55;;;;;;;53.35;28.98;;;7.40;99.90;;;;;;5077198;28;20024;-57
2023/12/15 00:50:21;;;;;;;60.45;33.22;;;7.50;99.90;;;;;;5076928;27;20170;-57
2023/12/15 00:52:47;;;;;;;38.60;22.75;;;7.60;99.90;;;;;;5077819;28;20024;-57
2023/12/15 00:55:13;;;;;;;26.73;17.67;;;7.50;99.90;;;;;;5077205;28;20024;-57
2023/12/15 00:57:39;;;;;;;38.72;25.00;;;7.50;99.90;;;;;;5076958;28;20033;-57
2023/12/15 01:00:06;;;;;;;35.05;22.05;;;7.40;99.90;;;;;;5077199;28;20027;-57
2023/12/15 01:02:31;;;;;;;27.30;17.73;;;7.40;99.90;;;;;;5077056;28;20070;-57
2023/12/15 01:04:57;;;;;;;32.70;20.33;;;7.40;99.90;;;;;;5076897;28;20044;-57
2023/12/15 01:07:23;;;;;;;39.58;23.67;;;7.40;99.90;;;;;;5077084;28;20377;-57
2023/12/15 01:09:49;;;;;;;37.38;21.15;;;7.40;99.90;;;;;;5076812;27;20037;-57
2023/12/15 01:12:15;;;;;;;25.88;16.02;;;7.50;99.90;;;;;;5076725;28;20020;-57
2023/12/15 01:14:41;;;;;;;22.02;14.43;;;7.40;99.90;;;;;;5076793;28;20378;-57
2023/12/15 01:17:07;;;;;;;23.70;15.27;;;7.40;99.90;;;;;;5077207;28;20447;-57
2023/12/15 01:19:33;;;;;;;22.92;14.93;;;7.50;99.90;;;;;;5076399;27;20036;-57
2023/12/15 01:21:58;;;;;;;21.85;15.07;;;7.50;99.90;;;;;;5076744;28;20029;-57
2023/12/15 01:24:24;;;;;;;22.20;14.73;;;7.60;99.90;;;;;;5076771;28;20060;-57
2023/12/15 01:26:50;;;;;;;20.65;15.27;;;7.50;99.90;;;;;;5076439;28;20025;-57
2023/12/15 01:29:16;;;;;;;30.30;15.15;;;7.50;99.90;;;;;;5076382;28;20060;-57
2023/12/15 01:31:42;;;;;;;21.88;13.90;;;7.40;99.90;;;;;;5076434;28;20029;-57
2023/12/15 01:34:08;;;;;;;27.73;14.18;;;7.40;99.90;;;;;;5075539;28;20070;-57
2023/12/15 01:36:34;;;;;;;18.65;13.73;;;7.40;99.90;;;;;;5076381;28;20033;-57
2023/12/15 01:39:00;;;;;;;18.88;13.68;;;7.50;99.90;;;;;;5076282;27;20043;-57
2023/12/15 01:41:26;;;;;;;20.08;14.32;;;7.40;99.90;;;;;;5076158;28;20359;-57
2023/12/15 01:43:52;;;;;;;21.95;14.93;;;7.40;99.90;;;;;;5076200;28;20032;-57
2023/12/15 01:46:18;;;;;;;25.98;15.70;;;7.40;99.90;;;;;;5076205;28;20428;-57
2023/12/15 01:48:44;;;;;;;41.75;24.08;;;7.40;99.90;;;;;;5075779;28;20032;-57
2023/12/15 01:51:10;;;;;;;30.98;19.02;;;7.40;99.90;;;;;;5076010;27;20033;-57
2023/12/15 01:53:36;;;;;;;26.67;17.92;;;7.40;99.90;;;;;;5076148;28;20044;-57
2023/12/15 01:56:03;;;;;;;23.15;14.07;;;7.40;99.90;;;;;;5075887;28;20021;-57
2023/12/15 01:58:29;;;;;;;21.40;14.52;;;7.30;99.90;;;;;;5075912;28;20024;-57
2023/12/15 02:00:55;;;;;;;24.02;15.07;;;7.30;99.90;;;;;;5075938;28;20131;-57
2023/12/15 02:03:21;;;;;;;28.48;16.27;;;7.30;99.90;;;;;;5075755;28;20032;-57
2023/12/15 02:05:48;;;;;;;24.65;15.63;;;7.30;99.90;;;;;;5075956;28;20115;-57
2023/12/15 02:08:14;;;;;;;25.08;15.68;;;7.30;99.90;;;;;;5075445;27;20481;-57
2023/12/15 02:10:40;;;;;;;22.50;14.45;;;7.30;99.90;;;;;;5075606;28;20031;-57
2023/12/15 02:13:06;;;;;;;24.67;15.73;;;7.30;99.90;;;;;;5075787;28;20025;-57
2023/12/15 02:15:32;;;;;;;26.65;17.10;;;7.20;99.90;;;;;;5075744;28;20126;-57
2023/12/15 02:17:58;;;;;;;36.03;21.90;;;7.20;99.90;;;;;;5075503;28;20020;-57
2023/12/15 02:20:24;;;;;;;33.28;18.42;;;7.20;99.90;;;;;;5075511;27;20493;-57
2023/12/15 02:22:50;;;;;;;25.83;16.65;;;7.20;99.90;;;;;;5075718;28;20096;-57
2023/12/15 02:25:16;;;;;;;22.58;15.23;;;7.20;99.90;;;;;;5075446;28;20047;-57
2023/12/15 02:27:42;;;;;;;25.75;16.73;;;7.10;99.90;;;;;;5075548;28;20027;-57
2023/12/15 02:30:08;;;;;;;27.13;17.25;;;7.20;99.90;;;;;;5075397;28;20033;-57
2023/12/15 02:32:34;;;;;;;24.23;14.70;;;7.20;99.90;;;;;;5075316;28;20017;-57
2023/12/15 02:34:59;;;;;;;23.98;15.85;;;7.10;99.90;;;;;;5075816;28;20033;-57
2023/12/15 02:37:27;;;;;;;21.33;15.00;;;7.10;99.90;;;;;;5075392;28;20038;-57
2023/12/15 02:39:53;;;;;;;23.35;15.52;;;7.10;99.90;;;;;;5075268;27;20037;-57
2023/12/15 02:42:19;;;;;;;23.52;13.75;;;7.10;99.90;;;;;;5075314;28;20081;-57
2023/12/15 02:44:45;;;;;;;21.08;14.18;;;7.10;99.90;;;;;;5075394;28;20039;-57
2023/12/15 02:47:11;;;;;;;24.05;14.15;;;7.10;99.90;;;;;;5072990;28;20050;-57
2023/12/15 02:49:39;;;;;;;22.60;15.05;;;7.10;99.90;;;;;;5074890;27;20052;-57
2023/12/15 02:52:06;;;;;;;20.23;14.57;;;7.10;99.90;;;;;;5075244;28;20462;-57
2023/12/15 02:54:32;;;;;;;22.70;14.93;;;7.10;99.90;;;;;;5075512;28;20028;-57
2023/12/15 02:56:58;;;;;;;23.92;14.85;;;7.10;99.90;;;;;;5074972;28;20024;-57
2023/12/15 02:59:24;;;;;;;22.80;16.15;;;7.10;99.90;;;;;;5074993;27;20028;-57
2023/12/15 03:01:50;;;;;;;24.60;14.70;;;7.10;99.90;;;;;;5075370;28;20038;-57
2023/12/15 03:04:15;;;;;;;25.80;15.65;;;7.10;99.90;;;;;;5075040;28;20039;-57
2023/12/15 03:06:41;;;;;;;23.10;15.60;;;7.10;99.90;;;;;;5075131;28;20142;-57
2023/12/15 03:09:07;;;;;;;22.52;15.48;;;7.00;99.90;;;;;;5075185;28;20454;-57
2023/12/15 03:11:33;;;;;;;24.20;15.52;;;7.10;99.90;;;;;;5074925;28;20036;-57
2023/12/15 03:13:59;;;;;;;24.63;15.70;;;7.10;99.90;;;;;;5074959;27;20397;-57
2023/12/15 03:16:25;;;;;;;30.55;15.65;;;7.10;99.90;;;;;;5075064;28;20024;-57
2023/12/15 03:18:51;;;;;;;22.48;14.80;;;7.00;99.90;;;;;;5074834;28;20382;-57
2023/12/15 03:21:17;;;;;;;23.85;15.30;;;7.00;99.90;;;;;;5074873;28;20021;-57
2023/12/15 03:23:43;;;;;;;20.05;14.35;;;6.90;99.90;;;;;;5074990;28;20513;-57
2023/12/15 03:26:09;;;;;;;24.60;14.70;;;6.90;99.90;;;;;;5074728;28;20036;-57
2023/12/15 03:28:35;;;;;;;21.75;14.13;;;7.00;99.90;;;;;;5074781;27;20047;-57
2023/12/15 03:31:01;;;;;;;20.95;13.68;;;7.00;99.90;;;;;;5074926;28;20040;-57
2023/12/15 03:33:35;;;;;;;22.27;14.25;;;7.00;99.90;;;;;;5074763;28;20028;-57
2023/12/15 03:36:04;;;;;;;19.52;12.75;;;7.00;99.90;;;;;;5074950;28;20032;-57
2023/12/15 03:38:30;;;;;;;18.73;13.02;;;7.00;99.90;;;;;;5074809;28;20031;-57
2023/12/15 03:40:56;;;;;;;19.77;13.32;;;7.00;99.90;;;;;;5074653;27;20036;-57
2023/12/15 03:43:22;;;;;;;20.60;12.65;;;7.00;99.90;;;;;;5074877;28;20025;-57
2023/12/15 03:45:48;;;;;;;19.63;12.57;;;7.00;99.90;;;;;;5073615;28;20378;-57
2023/12/15 03:48:14;;;;;;;17.67;12.32;;;7.00;99.90;;;;;;5074387;28;20474;-57
2023/12/15 03:50:40;;;;;;;18.02;12.82;;;7.00;99.90;;;;;;5074782;28;20028;-57
2023/12/15 03:53:05;;;;;;;20.45;13.27;;;7.00;99.90;;;;;;5074705;27;20394;-57
2023/12/15 03:55:31;;;;;;;20.33;12.82;;;7.00;99.90;;;;;;5074485;28;20427;-57
2023/12/15 03:57:57;;;;;;;17.92;12.82;;;6.90;99.90;;;;;;5078104;28;20028;-57
2023/12/15 04:00:23;;;;;;;18.75;12.25;;;7.00;99.90;;;;;;5078380;28;20025;-57
2023/12/15 04:02:49;;;;;;;18.95;12.88;;;6.90;99.90;;;;;;5078095;28;20028;-57
2023/12/15 04:05:16;;;;;;;18.52;13.20;;;6.80;99.90;;;;;;5078134;28;20039;-57
2023/12/15 04:07:42;;;;;;;24.35;13.95;;;6.90;99.90;;;;;;5077981;28;20035;-57
2023/12/15 04:10:11;;;;;;;19.80;13.38;;;7.00;99.90;;;;;;5077654;27;20490;-57
2023/12/15 04:12:37;;;;;;;21.48;13.65;;;7.00;99.90;;;;;;5078144;28;20033;-57
2023/12/15 04:15:04;;;;;;;17.75;12.80;;;7.00;99.90;;;;;;5077967;28;20484;-57
2023/12/15 04:17:29;;;;;;;20.48;13.68;;;7.00;99.90;;;;;;5077683;28;20453;-57
2023/12/15 04:19:55;;;;;;;17.60;12.23;;;7.00;99.90;;;;;;5077928;28;20067;-57
2023/12/15 04:22:22;;;;;;;20.15;12.77;;;7.00;99.90;;;;;;5077724;27;20090;-57
2023/12/15 04:24:49;;;;;;;24.27;13.48;;;7.00;99.90;;;;;;5077626;28;20024;-57
2023/12/15 04:27:15;;;;;;;20.60;13.18;;;7.00;99.90;;;;;;5077847;28;20101;-57
2023/12/15 04:29:41;;;;;;;20.80;12.68;;;7.00;99.90;;;;;;5077709;28;20436;-57
2023/12/15 04:32:07;;;;;;;16.33;12.13;;;7.00;99.90;;;;;;5077476;28;20028;-57
2023/12/15 04:34:33;;;;;;;20.33;12.60;;;6.90;99.90;;;;;;5077739;28;20040;-57
2023/12/15 04:36:59;;;;;;;20.95;13.18;;;6.90;99.90;;;;;;5077514;28;20028;-57
2023/12/15 04:39:25;;;;;;;18.27;13.18;;;6.90;99.90;;;;;;5077149;27;20036;-57
2023/12/15 04:41:51;;;;;;;20.60;13.55;;;6.90;99.90;;;;;;5077626;28;20116;-57
2023/12/15 04:44:17;;;;;;;21.33;13.52;;;6.90;99.90;;;;;;5077490;28;20035;-57
2023/12/15 04:46:43;;;;;;;21.55;14.63;;;6.90;99.90;;;;;;5076955;28;20024;-57
2023/12/15 04:49:09;;;;;;;20.48;13.00;;;6.90;99.90;;;;;;5077300;28;20466;-57
2023/12/15 04:51:35;;;;;;;19.88;14.73;;;6.90;99.90;;;;;;5077223;28;20078;-57
2023/12/15 04:54:01;;;;;;;20.10;13.40;;;6.90;99.90;;;;;;5076966;27;20111;-57
2023/12/15 04:56:27;;;;;;;20.35;13.52;;;6.90;99.90;;;;;;5077153;28;20081;-57
2023/12/15 04:58:53;;;;;;;22.83;14.23;;;6.90;99.90;;;;;;5077145;28;20029;-57
2023/12/15 05:01:18;;;;;;;18.60;12.65;;;6.90;99.90;;;;;;5076996;28;20463;-57
2023/12/15 05:03:45;;;;;;;21.02;14.10;;;7.00;99.90;;;;;;5076935;27;20110;-57
2023/12/15 05:06:19;;;;;;;19.40;13.20;;;7.00;99.90;;;;;;5076964;28;20025;-57
2023/12/15 05:08:46;;;;;;;23.77;13.75;;;7.10;99.90;;;;;;5076707;28;20024;-57
2023/12/15 05:11:12;;;;;;;19.92;14.05;;;7.00;99.90;;;;;;5077014;28;20046;-57
2023/12/15 05:13:38;;;;;;;25.75;13.63;;;7.00;99.90;;;;;;5076952;28;20059;-57
2023/12/15 05:16:05;;;;;;;22.58;12.93;;;7.00;99.90;;;;;;5076981;28;20033;-57
2023/12/15 05:18:31;;;;;;;18.40;13.93;;;7.00;99.90;;;;;;5076906;27;20325;-57
2023/12/15 05:20:56;;;;;;;23.33;14.13;;;7.00;99.90;;;;;;5076682;28;20784;-57
2023/12/15 05:23:22;;;;;;;21.23;13.70;;;6.90;99.90;;;;;;5076532;28;20037;-57
2023/12/15 05:25:48;;;;;;;26.58;14.63;;;6.90;99.90;;;;;;5076717;28;20086;-57
2023/12/15 05:28:14;;;;;;;23.02;14.25;;;7.00;99.90;;;;;;5076287;27;20066;-57
2023/12/15 05:30:40;;;;;;;21.05;14.05;;;6.90;99.90;;;;;;5076291;28;20315;-57
2023/12/15 05:33:06;;;;;;;24.30;13.73;;;7.00;99.90;;;;;;5076610;28;20048;-57
2023/12/15 05:35:33;;;;;;;18.02;12.73;;;6.90;99.90;;;;;;5076364;28;20119;-57
2023/12/15 05:38:00;;;;;;;19.50;13.68;;;6.90;99.90;;;;;;5075957;28;20567;-57
2023/12/15 05:40:25;;;;;;;22.15;14.73;;;7.00;99.90;;;;;;5076223;27;20041;-57
2023/12/15 05:42:51;;;;;;;22.15;15.55;;;7.00;99.90;;;;;;5076383;28;20031;-57
2023/12/15 05:45:17;;;;;;;20.45;14.00;;;6.90;99.90;;;;;;5075835;28;20024;-57
2023/12/15 05:47:43;;;;;;;22.40;15.10;;;6.90;99.90;;;;;;5076012;28;20036;-57
2023/12/15 05:50:11;;;;;;;21.10;13.27;;;6.90;99.90;;;;;;5076094;28;20028;-57
2023/12/15 05:52:37;;;;;;;21.30;14.43;;;6.90;99.90;;;;;;5075584;27;20081;-57
2023/12/15 05:55:03;;;;;;;19.65;14.20;;;7.00;99.90;;;;;;5075966;28;20093;-57
2023/12/15 05:57:29;;;;;;;23.70;14.65;;;7.00;99.90;;;;;;5075938;28;20028;-57
2023/12/15 05:59:55;;;;;;;22.63;14.35;;;6.90;99.90;;;;;;5075701;28;20032;-57
2023/12/15 06:02:21;;;;;;;39.70;24.95;;;7.00;99.90;;;;;;5075530;28;20114;-57
2023/12/15 06:04:47;;;;;;;36.40;23.17;;;7.00;99.90;;;;;;5075707;27;20043;-57
2023/12/15 06:07:15;;;;;;;23.63;15.52;;;7.00;99.90;;;;;;5075611;28;20550;-57
2023/12/15 06:09:42;;;;;;;25.75;15.82;;;7.00;99.90;;;;;;5075809;28;20296;-57
2023/12/15 06:12:09;;;;;;;27.42;17.27;;;6.90;99.90;;;;;;5076281;28;20032;-57
2023/12/15 06:14:38;;;;;;;32.20;20.92;;;6.90;99.90;;;;;;5080525;28;20037;-57
2023/12/15 06:17:07;;;;;;;39.83;25.55;;;6.90;99.90;;;;;;5075610;28;20052;-57
2023/12/15 06:19:37;;;;;;;24.90;15.90;;;7.00;99.90;;;;;;5075049;28;20043;-57
2023/12/15 06:22:03;;;;;;;32.53;22.13;;;7.00;99.90;;;;;;5073062;28;20028;-57
2023/12/15 06:24:29;;;;;;;32.47;21.92;;;6.90;99.90;;;;;;5075581;28;20042;-57
2023/12/15 06:26:55;;;;;;;35.53;20.88;;;6.90;99.90;;;;;;5074379;28;20056;-57
2023/12/15 06:29:21;;;;;;;36.90;23.92;;;7.00;99.90;;;;;;5075643;28;20033;-57
2023/12/15 06:31:48;;;;;;;37.65;24.50;;;6.90;99.90;;;;;;5075743;28;20703;-57
2023/12/15 06:34:14;;;;;;;45.15;28.35;;;6.80;99.90;;;;;;5075898;28;20052;-57
2023/12/15 06:36:40;;;;;;;42.35;25.58;;;6.90;99.90;;;;;;5075502;28;20070;-57
2023/12/15 06:39:06;;;;;;;52.63;30.90;;;6.90;99.90;;;;;;5075433;28;20044;-57
2023/12/15 06:41:32;;;;;;;44.38;27.60;;;7.10;99.90;;;;;;5071627;28;20108;-57
2023/12/15 06:43:58;;;;;;;52.10;33.08;;;7.10;99.90;;;;;;5072370;28;20024;-58
2023/12/15 06:46:25;;;;;;;61.80;40.83;;;7.10;99.90;;;;;;5071077;28;20021;-58
2023/12/15 06:48:53;;;;;;;76.32;47.60;;;7.00;99.90;;;;;;5072826;28;20051;-58
2023/12/15 06:51:19;;;;;;;60.72;40.45;;;7.00;99.90;;;;;;5075476;28;20024;-58
2023/12/15 06:53:45;;;;;;;57.92;35.13;;;7.00;99.90;;;;;;5075134;28;20098;-58
2023/12/15 06:56:11;;;;;;;51.20;33.13;;;7.00;99.90;;;;;;5075406;28;20025;-58
2023/12/15 06:58:37;;;;;;;48.67;30.30;;;7.10;99.90;;;;;;5075794;28;20056;-58
2023/12/15 07:01:03;;;;;;;43.97;26.40;;;7.00;99.90;;;;;;5075221;28;20044;-57
2023/12/15 07:03:29;;;;;;;50.17;28.80;;;7.10;99.90;;;;;;5075043;28;20027;-58
2023/12/15 07:05:55;;;;;;;36.08;24.70;;;7.10;99.90;;;;;;5075583;28;20521;-58
2023/12/15 07:08:21;;;;;;;29.45;20.33;;;7.10;99.90;;;;;;5075115;28;20024;-58
2023/12/15 07:10:47;;;;;;;33.97;21.20;;;7.10;99.90;;;;;;5073900;27;20059;-58
2023/12/15 07:13:13;;;;;;;28.02;17.00;;;7.10;99.90;;;;;;5074844;28;20107;-58
2023/12/15 07:15:38;;;;;;;23.67;15.50;;;7.10;99.90;;;;;;5074829;28;20056;-58
2023/12/15 07:18:04;;;;;;;30.05;18.42;;;7.00;99.90;;;;;;5076506;28;20504;-58
2023/12/15 07:20:30;;;;;;;28.80;16.55;;;7.10;99.90;;;;;;5073891;28;20041;-58
2023/12/15 07:22:57;;;;;;;20.13;14.68;;;7.10;99.90;;;;;;5074514;28;20075;-58
2023/12/15 07:25:26;;;;;;;25.60;15.80;;;7.00;99.90;;;;;;5075036;28;20024;-58
2023/12/15 07:27:53;;;;;;;28.95;17.58;;;7.10;99.90;;;;;;5075140;28;20024;-58
2023/12/15 07:30:20;;;;;;;32.03;20.35;;;7.10;99.90;;;;;;5074642;28;20032;-58
2023/12/15 07:32:46;;;;;;;29.80;18.52;;;7.10;99.90;;;;;;5078227;28;20024;-58
2023/12/15 07:35:12;;;;;;;28.88;17.90;;;7.20;99.90;;;;;;5078978;28;20033;-58
2023/12/15 07:37:38;;;;;;;36.92;20.00;;;7.20;99.90;;;;;;5078105;28;20040;-58
2023/12/15 07:40:05;;;;;;;50.10;25.95;;;7.20;99.90;;;;;;5077309;28;20024;-58
2023/12/15 07:42:31;;;;;;;53.40;29.52;;;7.30;99.90;;;;;;5078180;28;20028;-58
2023/12/15 07:44:58;;;;;;;49.05;29.75;;;7.30;99.90;;;;;;5076691;28;20031;-58
2023/12/15 07:47:24;;;;;;;53.05;29.40;;;7.20;99.90;;;;;;5078276;28;20058;-58
2023/12/15 07:49:50;;;;;;;52.85;29.65;;;7.20;99.90;;;;;;5078174;28;20044;-58
2023/12/15 07:52:16;;;;;;;45.90;26.33;;;7.20;99.90;;;;;;5078334;28;20036;-57
2023/12/15 07:54:42;;;;;;;36.70;21.75;;;7.20;99.90;;;;;;5078668;28;20078;-57
2023/12/15 07:57:07;;;;;;;38.65;21.98;;;7.10;99.90;;;;;;5077324;28;20043;-57
2023/12/15 07:59:37;;;;;;;56.15;26.55;;;7.20;99.90;;;;;;5076816;27;20035;-58
2023/12/15 08:02:03;;;;;;;45.63;24.70;;;7.30;99.90;;;;;;5077171;28;20028;-57
2023/12/15 08:04:30;;;;;;;59.80;26.70;;;7.30;99.90;;;;;;5078440;28;20016;-57
2023/12/15 08:06:56;;;;;;;41.45;22.25;;;7.60;99.90;;;;;;5077188;28;20025;-57
2023/12/15 08:09:21;;;;;;;43.85;23.63;;;7.80;99.90;;;;;;5076049;28;20035;-57
2023/12/15 08:11:48;;;;;;;40.78;22.48;;;8.10;99.90;;;;;;5078214;27;20045;-57
2023/12/15 08:14:14;;;;;;;46.17;24.02;;;8.10;99.90;;;;;;5077640;28;20441;-57
2023/12/15 08:16:40;;;;;;;50.42;24.70;;;8.10;99.90;;;;;;5071600;28;20047;-57
2023/12/15 08:19:08;;;;;;;46.63;22.52;;;8.10;99.90;;;;;;5072254;28;20093;-57
2023/12/15 08:21:34;;;;;;;45.13;25.83;;;8.20;99.90;;;;;;5078887;28;20039;-58
2023/12/15 08:24:00;;;;;;;48.67;23.73;;;8.30;99.90;;;;;;5077620;28;20055;-57
2023/12/15 08:26:27;;;;;;;48.85;25.55;;;8.20;99.90;;;;;;5072329;28;20033;-57
2023/12/15 08:28:54;;;;;;;40.03;21.20;;;8.10;99.90;;;;;;5071927;28;20032;-57
2023/12/15 08:31:21;;;;;;;40.83;22.23;;;8.20;99.90;;;;;;5077667;28;20028;-57
2023/12/15 08:33:47;;;;;;;42.88;23.42;;;8.10;99.90;;;;;;5077404;28;20036;-57
2023/12/15 08:36:13;;;;;;;41.92;23.20;;;8.10;99.90;;;;;;5077324;28;20074;-57
2023/12/15 08:38:40;;;;;;;37.85;22.98;;;8.10;99.90;;;;;;5077232;28;20024;-57
2023/12/15 08:41:07;;;;;;;34.92;19.15;;;8.00;99.90;;;;;;5076483;28;20496;-57
2023/12/15 08:43:33;;;;;;;45.88;21.27;;;8.00;99.90;;;;;;5075896;27;20552;-57
2023/12/15 08:45:59;;;;;;;41.10;24.38;;;8.00;99.90;;;;;;5077443;28;20115;-57
2023/12/15 08:48:25;;;;;;;35.38;19.15;;;8.00;99.90;;;;;;5063548;28;20095;-57
2023/12/15 08:50:51;;;;;;;34.33;18.27;;;8.00;99.90;;;;;;5067644;28;20033;-57
2023/12/15 08:53:18;;;;;;;36.42;21.77;;;8.00;99.90;;;;;;5057186;28;20025;-57
2023/12/15 08:55:44;;;;;;;34.75;20.58;;;8.00;99.90;;;;;;5057439;28;20111;-57
2023/12/15 08:58:10;;;;;;;39.58;24.80;;;7.90;99.90;;;;;;5062608;28;20083;-57
2023/12/15 09:00:37;;;;;;;37.38;23.80;;;7.90;99.90;;;;;;5077053;28;20036;-57
2023/12/15 09:03:03;;;;;;;30.88;19.10;;;7.90;99.90;;;;;;5076977;28;20029;-57
2023/12/15 09:05:29;;;;;;;41.70;23.83;;;7.90;99.90;;;;;;5076233;28;20055;-57
2023/12/15 09:07:56;;;;;;;40.70;20.23;;;7.90;99.90;;;;;;5076404;28;20031;-57
2023/12/15 09:10:22;;;;;;;36.85;22.25;;;8.00;99.90;;;;;;5071556;27;20463;-58
2023/12/15 09:12:48;;;;;;;53.13;21.45;;;7.90;99.90;;;;;;5075074;28;20033;-57
2023/12/15 09:15:14;;;;;;;40.38;21.23;;;7.90;99.90;;;;;;5065071;28;20025;-57
2023/12/15 09:17:42;;;;;;;35.15;20.15;;;8.00;99.90;;;;;;5063338;28;20082;-57
2023/12/15 09:20:12;;;;;;;30.25;18.90;;;8.00;99.90;;;;;;5063886;28;20064;-57
2023/12/15 09:22:40;;;;;;;37.40;20.80;;;8.00;99.90;;;;;;5076428;27;20044;-57
2023/12/15 09:25:07;;;;;;;29.17;18.63;;;8.00;99.90;;;;;;5076702;28;20024;-57
2023/12/15 09:27:33;;;;;;;37.53;21.35;;;7.90;99.90;;;;;;5074931;28;20107;-58
2023/12/15 09:29:59;;;;;;;41.40;21.65;;;7.90;99.90;;;;;;5076369;28;20060;-58
2023/12/15 09:32:25;;;;;;;32.58;19.33;;;8.00;99.90;;;;;;5076659;28;20028;-58
2023/12/15 09:34:51;;;;;;;41.00;22.40;;;8.00;99.90;;;;;;5076039;28;20047;-58
2023/12/15 09:37:17;;;;;;;44.65;24.70;;;7.90;99.90;;;;;;5074288;27;20029;-58
2023/12/15 09:39:43;;;;;;;35.78;19.23;;;7.90;99.90;;;;;;5071028;28;20449;-56
2023/12/15 09:42:09;;;;;;;44.80;20.02;;;7.90;99.90;;;;;;5065612;28;20413;-56
2023/12/15 09:44:35;;;;;;;41.92;19.55;;;7.90;99.90;;;;;;5073195;28;20031;-58
2023/12/15 09:47:02;;;;;;;37.72;19.65;;;7.90;99.90;;;;;;5073674;28;20116;-56
2023/12/15 09:49:32;;;;;;;47.60;22.92;;;7.90;99.90;;;;;;5064055;28;20453;-56
2023/12/15 09:52:02;;;;;;;31.70;19.70;;;7.90;99.90;;;;;;5075914;28;20040;-56
2023/12/15 09:54:28;;;;;;;26.83;17.52;;;8.00;99.90;;;;;;5073088;28;20135;-56
2023/12/15 09:56:55;;;;;;;39.42;20.95;;;7.90;99.90;;;;;;5075543;28;20035;-56
2023/12/15 09:59:22;;;;;;;57.83;24.65;;;8.00;99.90;;;;;;5072820;27;20044;-56
2023/12/15 10:01:48;;;;;;;44.97;21.70;;;8.00;99.90;;;;;;5074696;28;20535;-56
2023/12/15 10:04:14;;;;;;;37.58;18.77;;;8.00;99.90;;;;;;5068188;28;20040;-56
2023/12/15 10:06:41;;;;;;;36.22;22.02;;;8.00;99.90;;;;;;5064978;28;20028;-56
2023/12/15 10:09:13;;;;;;;43.92;21.58;;;8.00;99.90;;;;;;5075747;28;20453;-56
2023/12/15 10:11:40;;;;;;;36.28;20.92;;;8.00;99.90;;;;;;5075063;28;20067;-56
2023/12/15 10:14:09;;;;;;;55.10;25.15;;;8.00;99.90;;;;;;5076081;28;20025;-56
2023/12/15 10:16:37;;;;;;;42.53;22.38;;;8.00;99.90;;;;;;5061646;28;20040;-56
2023/12/15 10:19:04;;;;;;;36.13;21.75;;;8.00;99.90;;;;;;5062090;28;20020;-56
2023/12/15 10:21:31;;;;;;;42.72;22.35;;;8.00;99.90;;;;;;5073864;27;20058;-56
2023/12/15 10:23:58;;;;;;;65.72;34.63;;;8.00;99.90;;;;;;5068981;28;20031;-56
2023/12/15 10:26:24;;;;;;;101.88;47.03;;;8.00;99.90;;;;;;5071014;28;20382;-56
2023/12/15 10:28:55;;;;;;;59.25;29.55;;;8.00;99.90;;;;;;5072468;28;20033;-56
2023/12/15 10:31:26;;;;;;;43.92;22.95;;;7.90;99.90;;;;;;5075331;28;20024;-56
2023/12/15 10:33:52;;;;;;;40.45;22.25;;;8.00;99.90;;;;;;5067973;27;20142;-56
2023/12/15 10:36:18;;;;;;;32.88;19.63;;;7.90;99.90;;;;;;5074832;28;20094;-56
2023/12/15 10:38:44;;;;;;;44.25;23.08;;;7.80;99.90;;;;;;5075216;28;20021;-56
2023/12/15 10:41:12;;;;;;;46.83;22.83;;;7.80;99.90;;;;;;5066393;28;20357;-56
2023/12/15 10:43:39;;;;;;;42.28;22.85;;;7.80;99.90;;;;;;5070729;28;20424;-56
2023/12/15 10:46:08;;;;;;;45.00;23.48;;;7.80;99.90;;;;;;5075124;28;20021;-56
2023/12/15 10:48:34;;;;;;;49.40;24.13;;;7.70;99.90;;;;;;5074165;28;20035;-56
2023/12/15 10:51:01;;;;;;;37.35;21.90;;;7.70;99.90;;;;;;5074733;28;20028;-57
2023/12/15 10:53:28;;;;;;;42.25;22.63;;;7.80;99.90;;;;;;5072666;28;20527;-57
2023/12/15 10:55:54;;;;;;;39.88;21.88;;;7.80;99.90;;;;;;5073265;27;20486;-57
2023/12/15 10:58:20;;;;;;;46.92;21.23;;;7.80;99.90;;;;;;5075066;28;20477;-57
2023/12/15 11:00:46;;;;;;;34.65;20.17;;;7.80;99.90;;;;;;5074143;28;20036;-57
2023/12/15 11:03:13;;;;;;;57.55;21.58;;;7.80;99.90;;;;;;5073515;28;20490;-57
2023/12/15 11:05:41;;;;;;;33.22;19.15;;;7.70;99.90;;;;;;5076862;28;20063;-57
2023/12/15 11:08:09;;;;;;;37.97;20.80;;;7.70;99.90;;;;;;5071019;28;20052;-57
2023/12/15 11:10:35;;;;;;;44.72;25.60;;;7.80;99.90;;;;;;5078830;28;20032;-57
2023/12/15 11:13:01;;;;;;;42.38;21.75;;;7.80;99.90;;;;;;5078526;28;20020;-57
2023/12/15 11:15:28;;;;;;;39.63;21.83;;;7.70;99.90;;;;;;5077285;28;20046;-57
2023/12/15 11:17:57;;;;;;;40.08;21.27;;;7.70;99.90;;;;;;5063217;28;20123;-57
2023/12/15 11:20:24;;;;;;;34.97;21.10;;;7.80;99.90;;;;;;5074792;28;20119;-57
2023/12/15 11:23:08;;;;;;;34.70;21.58;;;7.70;99.90;;;;;;5078983;28;20029;-57
2023/12/15 11:25:46;;;;;;;37.83;20.27;;;7.70;99.90;;;;;;5078562;28;20056;-57
2023/12/15 11:28:15;;;;;;;32.53;19.65;;;7.80;99.90;;;;;;5078833;28;20028;-57
2023/12/15 11:30:44;;;;;;;32.45;21.58;;;7.80;99.90;;;;;;5078102;28;20482;-57
2023/12/15 11:33:39;;;;;;;40.10;22.27;;;7.70;99.90;;;;;;5071349;28;20067;-57
2023/12/15 11:36:09;;;;;;;38.60;20.23;;;7.80;99.90;;;;;;5076617;28;20020;-57
2023/12/15 11:38:36;;;;;;;38.23;21.07;;;7.80;99.90;;;;;;5074757;28;20029;-57
2023/12/15 11:41:03;;;;;;;32.00;18.95;;;7.90;99.90;;;;;;5077302;27;20082;-57
2023/12/15 11:43:36;;;;;;;34.22;19.23;;;7.90;99.90;;;;;;5077469;28;20021;-57
2023/12/15 11:46:03;;;;;;;30.48;17.85;;;8.00;99.90;;;;;;5070829;28;20048;-57
2023/12/15 11:48:29;;;;;;;50.58;24.73;;;7.90;99.90;;;;;;5075121;28;20024;-57
2023/12/15 11:50:56;;;;;;;32.58;19.67;;;7.80;99.90;;;;;;5076036;27;20036;-57
2023/12/15 11:53:22;;;;;;;29.95;16.67;;;8.00;99.90;;;;;;5078022;28;20042;-57
2023/12/15 11:55:49;;;;;;;31.85;16.98;;;8.00;99.90;;;;;;5077147;28;20070;-57
2023/12/15 11:58:15;;;;;;;39.97;16.80;;;8.00;99.90;;;;;;5074892;28;20033;-57
2023/12/15 12:00:42;;;;;;;23.77;15.77;;;8.00;99.90;;;;;;5071981;27;20097;-57
2023/12/15 12:03:12;;;;;;;35.13;20.60;;;8.00;99.90;;;;;;5077286;28;20037;-57
2023/12/15 12:05:42;;;;;;;30.95;15.95;;;8.00;99.90;;;;;;5076001;28;20184;-60
2023/12/15 12:08:09;;;;;;;31.70;15.23;;;8.00;99.90;;;;;;5076940;28;20031;-59
2023/12/15 12:10:39;;;;;;;27.55;14.45;;;8.00;99.90;;;;;;5076994;28;20389;-57
2023/12/15 12:13:10;;;;;;;25.02;13.65;;;8.10;99.90;;;;;;5077718;28;20051;-57
2023/12/15 12:15:52;;;;;;;;;;;8.20;99.90;;;;;;5069017;28;20466;-57
2023/12/15 12:18:23;;;;;;;23.67;13.63;;;8.20;99.90;;;;;;5076568;28;20378;-57
2023/12/15 12:20:54;;;;;;;21.17;13.25;;;8.30;99.90;;;;;;5077819;28;20024;-57
2023/12/15 12:23:27;;;;;;;24.95;13.00;;;8.30;99.90;;;;;;5070557;28;20024;-57
2023/12/15 12:25:57;;;;;;;28.98;13.93;;;8.40;99.90;;;;;;5060392;28;20028;-57
2023/12/15 12:28:37;;;;;;;21.05;13.10;;;8.40;99.90;;;;;;5077388;27;20040;-57
2023/12/15 12:31:03;;;;;;;21.23;12.30;;;8.40;99.90;;;;;;5066127;28;20047;-57
2023/12/15 12:33:30;;;;;;;34.50;14.68;;;8.50;99.90;;;;;;5067786;28;20115;-57
2023/12/15 12:35:57;;;;;;;23.88;13.25;;;8.50;99.90;;;;;;5072821;28;20085;-57